aviador You're here:

CYLD Decoded Metar

CHAPLEAU in ON, CANADA
Report Time2018-04-26 13:00:00
UTC Time2018-04-26 13:11:42
Flight Rules vfr VFR
Wind220° at 07 kt
W.Decomp.*RWY 23: 7.0 kt HW 0.1 kt LCW
RWY 28: 4.4 kt HW 5.4 kt LCW
W.Rank220° ranks 3
Current wind is below 220° avg. (7.1)
Visibility9999 m
Phenomena:N/A
Clouds:Broken 280 Hf
Expected CloudBase > 4,000 ft AGL from Temp-Dew spread
Ceiling28,000 ft
Temp03°C (ISA -9)
Dew Point-7°C (48% RH)
AAT-2.3°C
QNH1009 hPa
Density Alt561 ft
Elevation1,467 ft
Report Wrong Elevation
Raw Report
CYLD 261300Z 22007KT 200V280 15SM BKN280 03/M07 A2979 RMK CI6
SLP111=

Extra information for CYLD:More info

Metar Taf Metar & Taf Last 4 Metars F.Rules Stats Wind Profile Meteogram Temp Stats Airport Information Weather charts Add Link Nearby VenuesMetar ALERT Operation Metar Decoded Social comments